Time;durP1;ratioP1;P1;durP2;ratioP2;P2;SDS_P1;SDS_P2;PMS_P1;PMS_P2;Temp;Humidity;BMP_temperature;BMP_pressure;BME280_temperature;BME280_humidity;BME280_pressure;Samples;Min_cycle;Max_cycle;Signal;HPM_P1;HPM_P2
2022/02/01 00:04:33;;;;;;;19.05;1.80;;;;;;;;;;4993399;28;20226;-68
2022/02/01 00:10:11;;;;;;;16.30;2.15;;;;;;;;;;4999908;28;20747;-68
2022/02/01 00:13:05;;;;;;;23.15;2.47;;;;;;;;;;5038182;28;20634;-68
2022/02/01 00:18:32;;;;;;;25.13;4.03;;;;;;;;;;5051819;28;20359;-68
2022/02/01 00:37:17;;;;;;;19.42;2.45;;;;;;;;;;5049303;28;20044;-67
2022/02/01 00:39:45;;;;;;;24.00;2.45;;;;;;;;;;5048396;28;20059;-68
2022/02/01 00:42:12;;;;;;;13.95;2.15;;;;;;;;;;5060816;28;20052;-68
2022/02/01 00:44:39;;;;;;;21.92;2.78;;;;;;;;;;5054725;28;21154;-68
2022/02/01 00:47:06;;;;;;;19.85;1.90;;;;;;;;;;5053856;28;20431;-68
2022/02/01 00:49:34;;;;;;;14.00;2.10;;;;;;;;;;5062590;28;20040;-67
2022/02/01 00:52:00;;;;;;;18.25;2.40;;;;;;;;;;5050854;28;20052;-67
2022/02/01 00:54:27;;;;;;;18.67;2.72;;;;;;;;;;5058280;28;20139;-67
2022/02/01 00:56:53;;;;;;;14.15;2.08;;;;;;;;;;5053242;28;20059;-67
2022/02/01 00:59:19;;;;;;;20.38;3.03;;;;;;;;;;5062876;28;20567;-67
2022/02/01 01:01:46;;;;;;;13.38;2.00;;;;;;;;;;5052684;28;20048;-68
2022/02/01 01:04:12;;;;;;;17.85;3.20;;;;;;;;;;5048122;28;20066;-68
2022/02/01 01:06:38;;;;;;;20.35;2.33;;;;;;;;;;5057192;28;20413;-68
2022/02/01 01:09:05;;;;;;;12.75;3.17;;;;;;;;;;5051481;28;20055;-67
2022/02/01 01:11:31;;;;;;;12.98;1.98;;;;;;;;;;5062297;28;20139;-68
2022/02/01 01:14:43;;;;;;;14.00;2.00;;;;;;;;;;5053426;28;20045;-68
2022/02/01 01:44:31;;;;;;;12.85;1.67;;;;;;;;;;5061765;28;20044;-67
2022/02/01 01:55:13;;;;;;;15.90;1.90;;;;;;;;;;5052482;28;20048;-67
2022/02/01 01:57:39;;;;;;;14.93;2.20;;;;;;;;;;5044491;28;20068;-67
2022/02/01 02:00:18;;;;;;;22.63;2.88;;;;;;;;;;5031237;28;20450;-67
2022/02/01 02:02:45;;;;;;;14.25;2.40;;;;;;;;;;5038053;28;20462;-67
2022/02/01 02:05:11;;;;;;;13.70;1.90;;;;;;;;;;5034970;28;20049;-67
2022/02/01 02:07:38;;;;;;;11.88;1.27;;;;;;;;;;5044177;28;20150;-67
2022/02/01 02:10:05;;;;;;;16.50;1.65;;;;;;;;;;5043513;28;20053;-67
2022/02/01 02:12:51;;;;;;;16.00;2.20;;;;;;;;;;5047821;28;20054;-67
2022/02/01 02:15:30;;;;;;;14.35;2.00;;;;;;;;;;5054325;28;20052;-67
2022/02/01 02:18:00;;;;;;;17.15;2.10;;;;;;;;;;5053239;28;20074;-67
2022/02/01 02:20:26;;;;;;;15.18;2.03;;;;;;;;;;5038969;28;20045;-67
2022/02/01 02:22:52;;;;;;;14.02;1.48;;;;;;;;;;5052997;28;20041;-67
2022/02/01 02:25:19;;;;;;;11.38;2.03;;;;;;;;;;5058886;28;20155;-67
2022/02/01 02:27:45;;;;;;;10.93;1.77;;;;;;;;;;5048593;28;20044;-67
2022/02/01 02:30:12;;;;;;;21.10;1.85;;;;;;;;;;5056524;28;20044;-67
2022/02/01 02:32:38;;;;;;;8.40;1.10;;;;;;;;;;5058467;28;20063;-67
2022/02/01 02:35:05;;;;;;;20.15;1.52;;;;;;;;;;5044051;28;20533;-67
2022/02/01 02:37:32;;;;;;;13.15;1.35;;;;;;;;;;5059739;28;20482;-67
2022/02/01 02:40:16;;;;;;;15.50;1.92;;;;;;;;;;5048908;28;21126;-67
2022/02/01 02:45:27;;;;;;;13.70;2.13;;;;;;;;;;5047300;28;20051;-67
2022/02/01 02:47:54;;;;;;;12.18;1.52;;;;;;;;;;5061269;28;20050;-67
2022/02/01 02:50:22;;;;;;;12.10;1.58;;;;;;;;;;5050501;28;20044;-67
2022/02/01 02:52:48;;;;;;;20.02;2.30;;;;;;;;;;5060348;28;20052;-67
2022/02/01 02:55:15;;;;;;;16.15;1.67;;;;;;;;;;5057744;28;20056;-67
2022/02/01 02:57:41;;;;;;;13.45;1.70;;;;;;;;;;5048441;28;20067;-67
2022/02/01 03:00:07;;;;;;;13.63;1.63;;;;;;;;;;5061034;28;20048;-67
2022/02/01 03:02:34;;;;;;;18.92;2.03;;;;;;;;;;5045142;28;20044;-67
2022/02/01 03:05:00;;;;;;;15.48;1.80;;;;;;;;;;5041202;28;20049;-67
2022/02/01 03:07:26;;;;;;;10.57;1.50;;;;;;;;;;5033934;28;20433;-67
2022/02/01 03:09:53;;;;;;;15.30;1.75;;;;;;;;;;5037969;28;20049;-67
2022/02/01 03:12:33;;;;;;;10.02;1.50;;;;;;;;;;5039367;28;20049;-67
2022/02/01 03:15:21;;;;;;;11.32;1.55;;;;;;;;;;5033456;28;20285;-67
2022/02/01 03:20:32;;;;;;;13.60;2.10;;;;;;;;;;5034582;28;20430;-67
2022/02/01 03:22:59;;;;;;;15.50;1.80;;;;;;;;;;5035556;28;20355;-67
2022/02/01 03:25:25;;;;;;;11.85;2.25;;;;;;;;;;5027705;28;20040;-67
2022/02/01 03:27:51;;;;;;;17.98;1.63;;;;;;;;;;5060637;28;20048;-67
2022/02/01 03:30:17;;;;;;;13.43;2.53;;;;;;;;;;5053834;28;20585;-67
2022/02/01 03:32:44;;;;;;;14.77;1.90;;;;;;;;;;5060292;28;20055;-67
2022/02/01 03:35:10;;;;;;;12.57;1.08;;;;;;;;;;5061152;28;20260;-67
2022/02/01 03:37:36;;;;;;;9.85;1.63;;;;;;;;;;5046840;28;20505;-67
2022/02/01 03:40:03;;;;;;;14.90;1.42;;;;;;;;;;5057191;28;20071;-67
2022/02/01 03:42:29;;;;;;;7.65;1.40;;;;;;;;;;5053550;28;20056;-67
2022/02/01 03:44:56;;;;;;;14.77;1.40;;;;;;;;;;5060628;28;20071;-67
2022/02/01 03:47:22;;;;;;;14.65;1.50;;;;;;;;;;5053734;28;20752;-67
2022/02/01 03:49:49;;;;;;;11.50;1.88;;;;;;;;;;5064499;28;20147;-67
2022/02/01 03:52:15;;;;;;;9.70;1.60;;;;;;;;;;5054640;28;20059;-67
2022/02/01 03:54:42;;;;;;;17.40;2.05;;;;;;;;;;5050967;28;20058;-67
2022/02/01 03:57:10;;;;;;;13.57;2.15;;;;;;;;;;5061175;28;20576;-67
2022/02/01 03:59:37;;;;;;;13.25;1.75;;;;;;;;;;5047456;28;20065;-67
2022/02/01 04:02:03;;;;;;;12.88;2.03;;;;;;;;;;5057913;28;20056;-67
2022/02/01 04:04:31;;;;;;;14.77;1.70;;;;;;;;;;5046940;28;20280;-67
2022/02/01 04:06:58;;;;;;;17.27;1.75;;;;;;;;;;5055647;28;20048;-67
2022/02/01 04:09:25;;;;;;;6.20;1.38;;;;;;;;;;5061482;28;20056;-67
2022/02/01 04:11:56;;;;;;;12.23;1.40;;;;;;;;;;5052276;28;20041;-67
2022/02/01 04:14:26;;;;;;;14.60;1.65;;;;;;;;;;5060234;28;20420;-67
2022/02/01 04:16:53;;;;;;;13.63;1.70;;;;;;;;;;5053622;28;20454;-67
2022/02/01 04:19:20;;;;;;;14.18;1.77;;;;;;;;;;5060578;28;20478;-67
2022/02/01 04:21:57;;;;;;;8.38;1.45;;;;;;;;;;5051509;28;20371;-67
2022/02/01 04:24:23;;;;;;;11.60;1.50;;;;;;;;;;5065763;28;20060;-68
2022/02/01 04:26:50;;;;;;;11.32;1.45;;;;;;;;;;5065566;28;20052;-67
2022/02/01 04:29:16;;;;;;;14.73;1.63;;;;;;;;;;5058378;28;20079;-67
2022/02/01 04:31:43;;;;;;;7.68;1.67;;;;;;;;;;5064472;28;20528;-67
2022/02/01 04:34:09;;;;;;;13.35;2.63;;;;;;;;;;5049110;28;20129;-67
2022/02/01 04:36:36;;;;;;;13.52;2.13;;;;;;;;;;5064132;28;20048;-67
2022/02/01 04:39:02;;;;;;;8.63;1.55;;;;;;;;;;5056485;28;20055;-67
2022/02/01 04:41:29;;;;;;;10.10;1.42;;;;;;;;;;5064657;28;20056;-67
2022/02/01 04:43:57;;;;;;;18.45;2.92;;;;;;;;;;5064246;28;20505;-67
2022/02/01 04:46:24;;;;;;;;;;;;;;;;;;5052592;28;20049;-68
2022/02/01 04:48:52;;;;;;;11.35;1.48;;;;;;;;;;5063400;28;19924;-67
2022/02/01 04:51:19;;;;;;;8.23;1.55;;;;;;;;;;5074516;28;20056;-67
2022/02/01 04:53:46;;;;;;;7.63;1.25;;;;;;;;;;5085295;28;20059;-67
2022/02/01 04:56:13;;;;;;;17.70;2.40;;;;;;;;;;5076745;28;20040;-67
2022/02/01 04:58:39;;;;;;;10.80;2.03;;;;;;;;;;5075436;28;20063;-67
2022/02/01 05:01:06;;;;;;;12.25;1.60;;;;;;;;;;5059951;28;20082;-67
2022/02/01 05:03:33;;;;;;;14.38;2.10;;;;;;;;;;5051639;28;20052;-67
2022/02/01 05:06:03;;;;;;;12.05;1.70;;;;;;;;;;5063885;28;20152;-67
2022/02/01 05:08:29;;;;;;;14.35;2.50;;;;;;;;;;5036282;28;20059;-67
2022/02/01 05:10:56;;;;;;;11.00;1.85;;;;;;;;;;5064774;28;20052;-67
2022/02/01 05:16:20;;;;;;;15.68;1.92;;;;;;;;;;5056222;28;20254;-67
2022/02/01 05:18:48;;;;;;;16.27;2.08;;;;;;;;;;5055937;28;20052;-67
2022/02/01 05:21:24;;;;;;;15.13;1.80;;;;;;;;;;5064348;28;20056;-67
2022/02/01 05:23:51;;;;;;;14.35;2.17;;;;;;;;;;5064003;28;20044;-67
2022/02/01 05:26:19;;;;;;;13.30;2.05;;;;;;;;;;5056621;28;20091;-67
2022/02/01 05:28:45;;;;;;;15.52;2.17;;;;;;;;;;5058062;28;20044;-67
2022/02/01 05:31:11;;;;;;;14.23;2.40;;;;;;;;;;5050690;28;20059;-67
2022/02/01 05:33:38;;;;;;;16.67;2.35;;;;;;;;;;5064284;28;20052;-67
2022/02/01 05:36:05;;;;;;;15.07;2.70;;;;;;;;;;5054664;28;20155;-67
2022/02/01 05:38:31;;;;;;;14.40;2.25;;;;;;;;;;5063311;28;20068;-67
2022/02/01 05:40:58;;;;;;;15.25;2.60;;;;;;;;;;5062608;28;20053;-67
2022/02/01 05:43:26;;;;;;;9.30;2.03;;;;;;;;;;5048634;28;20059;-67
2022/02/01 05:45:53;;;;;;;;;;;;;;;;;;5063293;28;20215;-67
2022/02/01 05:48:19;;;;;;;8.88;1.98;;;;;;;;;;5055912;28;19928;-67
2022/02/01 05:50:47;;;;;;;21.92;3.13;;;;;;;;;;5080002;28;20276;-67
2022/02/01 05:53:13;;;;;;;17.02;2.30;;;;;;;;;;5071704;28;20063;-67
2022/02/01 05:55:40;;;;;;;10.15;2.17;;;;;;;;;;5058940;28;20060;-67
2022/02/01 05:58:07;;;;;;;17.10;2.53;;;;;;;;;;5054734;28;20127;-67
2022/02/01 06:00:33;;;;;;;19.70;2.60;;;;;;;;;;5057816;28;20503;-67
2022/02/01 06:03:00;;;;;;;14.13;1.88;;;;;;;;;;5052760;28;20114;-67
2022/02/01 06:05:28;;;;;;;16.55;2.17;;;;;;;;;;5051187;28;20048;-67
2022/02/01 06:07:55;;;;;;;18.15;2.42;;;;;;;;;;5061576;28;20053;-67
2022/02/01 06:10:21;;;;;;;15.10;2.55;;;;;;;;;;5052528;28;20501;-67
2022/02/01 06:12:48;;;;;;;11.35;2.25;;;;;;;;;;5062301;28;20413;-68
2022/02/01 06:15:16;;;;;;;12.63;2.17;;;;;;;;;;5056238;28;20052;-68
2022/02/01 06:17:42;;;;;;;19.73;3.05;;;;;;;;;;5062566;28;20057;-67
2022/02/01 06:20:09;;;;;;;12.05;2.10;;;;;;;;;;5039356;28;20087;-67
2022/02/01 06:22:36;;;;;;;19.08;2.40;;;;;;;;;;5040706;28;20441;-68
2022/02/01 06:25:02;;;;;;;12.45;2.38;;;;;;;;;;5059628;28;20056;-67
2022/02/01 06:27:29;;;;;;;14.07;2.25;;;;;;;;;;5052166;28;20045;-67
2022/02/01 06:29:56;;;;;;;11.70;2.35;;;;;;;;;;5055479;28;20548;-67
2022/02/01 06:32:24;;;;;;;23.95;3.53;;;;;;;;;;5053225;28;20044;-67
2022/02/01 06:34:50;;;;;;;14.95;3.38;;;;;;;;;;5050157;28;20052;-67
2022/02/01 06:37:16;;;;;;;13.25;2.45;;;;;;;;;;5058280;28;20045;-67
2022/02/01 06:39:42;;;;;;;17.00;4.07;;;;;;;;;;5053284;28;20067;-67
2022/02/01 06:42:09;;;;;;;23.00;3.55;;;;;;;;;;5062554;28;20049;-67
2022/02/01 06:44:35;;;;;;;16.10;3.42;;;;;;;;;;5051336;28;20056;-67
2022/02/01 06:47:02;;;;;;;21.60;4.28;;;;;;;;;;5050261;28;20044;-67
2022/02/01 06:49:28;;;;;;;10.35;3.17;;;;;;;;;;5048188;28;20037;-67
2022/02/01 06:51:54;;;;;;;18.25;3.65;;;;;;;;;;5047730;28;20423;-67
2022/02/01 06:54:21;;;;;;;14.55;2.95;;;;;;;;;;5058119;28;20048;-67
2022/02/01 06:56:47;;;;;;;19.52;3.33;;;;;;;;;;5046253;28;20056;-67
2022/02/01 06:59:13;;;;;;;18.30;3.55;;;;;;;;;;5062293;28;20351;-67
2022/02/01 07:01:40;;;;;;;19.33;3.63;;;;;;;;;;5048576;28;20493;-67
2022/02/01 07:04:06;;;;;;;15.45;3.25;;;;;;;;;;5056333;28;20456;-67
2022/02/01 07:06:34;;;;;;;21.60;3.28;;;;;;;;;;5045311;28;20045;-67
2022/02/01 07:09:02;;;;;;;29.50;5.20;;;;;;;;;;5059967;28;20052;-67
2022/02/01 07:11:28;;;;;;;21.88;4.45;;;;;;;;;;5058472;28;20277;-67
2022/02/01 07:13:55;;;;;;;22.75;3.95;;;;;;;;;;5053472;28;20058;-67
2022/02/01 07:16:21;;;;;;;14.65;4.57;;;;;;;;;;5048350;28;20143;-67
2022/02/01 07:18:53;;;;;;;22.30;4.90;;;;;;;;;;5049040;28;20056;-67
2022/02/01 07:21:20;;;;;;;16.92;3.95;;;;;;;;;;5062233;28;20152;-67
2022/02/01 07:23:47;;;;;;;16.23;4.83;;;;;;;;;;5053158;28;20390;-67
2022/02/01 07:26:14;;;;;;;28.15;6.13;;;;;;;;;;5062621;28;20320;-67
2022/02/01 07:28:40;;;;;;;25.23;6.07;;;;;;;;;;5059236;28;20048;-67
2022/02/01 07:31:09;;;;;;;17.75;5.70;;;;;;;;;;5040202;28;20053;-67
2022/02/01 07:33:35;;;;;;;25.98;7.28;;;;;;;;;;5060847;28;20064;-67
2022/02/01 07:36:02;;;;;;;25.98;7.68;;;;;;;;;;5051020;28;20063;-67
2022/02/01 07:38:29;;;;;;;14.25;6.50;;;;;;;;;;5060642;28;20474;-67
2022/02/01 07:40:56;;;;;;;24.00;8.30;;;;;;;;;;5052838;28;20079;-67
2022/02/01 07:43:25;;;;;;;26.52;8.85;;;;;;;;;;5056065;28;20452;-67
2022/02/01 07:45:52;;;;;;;26.77;9.65;;;;;;;;;;5056447;28;20541;-67
2022/02/01 07:48:18;;;;;;;32.50;10.88;;;;;;;;;;5053110;28;20044;-68
2022/02/01 07:50:45;;;;;;;28.05;10.70;;;;;;;;;;5065678;28;20171;-68
2022/02/01 07:53:11;;;;;;;21.60;9.85;;;;;;;;;;5051582;28;20557;-68
2022/02/01 07:55:38;;;;;;;35.05;11.85;;;;;;;;;;5055061;28;20417;-68
2022/02/01 07:58:04;;;;;;;31.48;13.07;;;;;;;;;;5046115;28;20603;-68
2022/02/01 08:00:31;;;;;;;33.65;12.23;;;;;;;;;;5055657;28;20052;-68
2022/02/01 08:02:58;;;;;;;25.92;12.52;;;;;;;;;;5059683;28;20051;-68
2022/02/01 08:05:25;;;;;;;30.23;12.93;;;;;;;;;;5049547;28;21126;-68
2022/02/01 08:07:52;;;;;;;30.25;12.32;;;;;;;;;;5057953;28;20053;-68
2022/02/01 08:10:19;;;;;;;27.00;11.52;;;;;;;;;;5052384;28;20052;-68
2022/02/01 08:18:34;;;;;;;27.60;14.18;;;;;;;;;;5041192;28;20455;-68
2022/02/01 08:21:04;;;;;;;32.50;16.40;;;;;;;;;;5049884;28;20067;-68
2022/02/01 08:23:30;;;;;;;36.40;14.55;;;;;;;;;;5057553;28;20044;-68
2022/02/01 08:25:57;;;;;;;40.85;17.42;;;;;;;;;;5048131;28;20062;-69
2022/02/01 08:28:24;;;;;;;35.50;18.23;;;;;;;;;;5054901;28;20139;-68
2022/02/01 08:30:51;;;;;;;31.75;16.48;;;;;;;;;;5060636;28;20525;-68
2022/02/01 08:33:17;;;;;;;34.40;17.55;;;;;;;;;;5052725;28;20055;-68
2022/02/01 08:35:44;;;;;;;31.17;16.08;;;;;;;;;;5061105;28;20060;-68
2022/02/01 08:38:16;;;;;;;34.22;15.85;;;;;;;;;;5053563;28;20049;-68
2022/02/01 08:40:46;;;;;;;;;;;;;;;;;;5054671;28;20140;-68
2022/02/01 08:43:13;;;;;;;29.40;16.40;;;;;;;;;;5050850;28;19935;-68
2022/02/01 08:45:40;;;;;;;29.27;15.35;;;;;;;;;;5060108;28;20056;-68
2022/02/01 08:48:06;;;;;;;30.10;17.30;;;;;;;;;;5059887;28;20044;-68
2022/02/01 08:50:35;;;;;;;30.95;16.70;;;;;;;;;;5055600;28;20053;-68
2022/02/01 08:53:46;;;;;;;38.67;17.70;;;;;;;;;;5057821;28;20135;-67
2022/02/01 08:58:24;;;;;;;31.02;17.10;;;;;;;;;;5060201;28;20055;-68
2022/02/01 09:00:51;;;;;;;25.77;16.33;;;;;;;;;;5053112;28;20049;-68
2022/02/01 09:03:18;;;;;;;23.80;14.25;;;;;;;;;;5067881;28;20148;-68
2022/02/01 09:05:52;;;;;;;25.75;15.82;;;;;;;;;;5066375;28;20194;-68
2022/02/01 09:08:46;;;;;;;29.27;17.05;;;;;;;;;;5045762;28;20086;-68
2022/02/01 09:11:39;;;;;;;33.85;18.65;;;;;;;;;;5036054;28;20071;-68
2022/02/01 09:14:34;;;;;;;30.38;16.52;;;;;;;;;;5051805;28;20071;-68
2022/02/01 09:17:28;;;;;;;33.63;18.75;;;;;;;;;;5046800;28;20100;-69
2022/02/01 09:19:54;;;;;;;30.48;16.88;;;;;;;;;;5059003;28;20062;-68
2022/02/01 09:22:48;;;;;;;28.45;16.15;;;;;;;;;;5048328;28;20579;-68
2022/02/01 09:25:42;;;;;;;32.85;17.77;;;;;;;;;;5045211;28;20047;-68
2022/02/01 09:28:36;;;;;;;31.50;18.23;;;;;;;;;;5051880;28;20063;-68
2022/02/01 09:31:02;;;;;;;27.23;17.27;;;;;;;;;;5058642;28;20063;-68
2022/02/01 09:33:57;;;;;;;29.35;17.60;;;;;;;;;;5059598;28;20888;-68
2022/02/01 09:36:52;;;;;;;26.63;16.13;;;;;;;;;;5047825;28;20044;-68
2022/02/01 09:39:46;;;;;;;26.42;16.02;;;;;;;;;;5054866;28;20741;-68
2022/02/01 09:42:40;;;;;;;21.17;13.52;;;;;;;;;;5051554;28;20119;-68
2022/02/01 09:45:36;;;;;;;23.60;14.50;;;;;;;;;;5047558;28;20101;-68
2022/02/01 09:51:45;;;;;;;24.50;15.32;;;;;;;;;;5025996;28;20048;-68
2022/02/01 09:54:21;;;;;;;20.52;13.25;;;;;;;;;;5057176;28;20045;-68
2022/02/01 09:57:14;;;;;;;20.00;13.73;;;;;;;;;;5054865;28;20063;-68
2022/02/01 10:00:14;;;;;;;21.13;13.32;;;;;;;;;;5060360;28;20051;-68
2022/02/01 10:03:13;;;;;;;17.48;10.70;;;;;;;;;;5035426;28;20055;-68
2022/02/01 10:06:11;;;;;;;18.17;11.90;;;;;;;;;;5047898;28;20043;-68
2022/02/01 10:09:06;;;;;;;20.20;12.40;;;;;;;;;;5038572;28;20201;-68
2022/02/01 10:12:00;;;;;;;18.10;11.55;;;;;;;;;;5058687;28;20031;-68
2022/02/01 10:14:59;;;;;;;17.05;10.43;;;;;;;;;;5052984;28;20094;-68
2022/02/01 10:18:02;;;;;;;14.45;8.88;;;;;;;;;;5053002;28;20125;-68
2022/02/01 10:21:03;;;;;;;15.55;9.65;;;;;;;;;;5052514;28;20047;-69
2022/02/01 10:24:03;;;;;;;17.02;9.77;;;;;;;;;;5060628;28;20232;-68
2022/02/01 10:27:08;;;;;;;15.25;10.23;;;;;;;;;;5041355;28;20079;-67
2022/02/01 10:29:35;;;;;;;14.85;9.27;;;;;;;;;;5056353;28;20061;-67
2022/02/01 10:37:54;;;;;;;16.00;7.35;;;;;;;;;;5045391;28;20045;-67
2022/02/01 10:40:50;;;;;;;11.75;7.03;;;;;;;;;;5055083;28;20511;-67
2022/02/01 10:43:25;;;;;;;9.23;5.50;;;;;;;;;;5031610;28;20049;-67
2022/02/01 10:46:21;;;;;;;12.18;7.05;;;;;;;;;;5047754;28;20561;-67
2022/02/01 10:49:25;;;;;;;10.90;7.20;;;;;;;;;;5054243;28;20563;-67
2022/02/01 10:52:19;;;;;;;11.00;6.45;;;;;;;;;;5062227;28;20580;-67
2022/02/01 10:54:45;;;;;;;12.85;7.65;;;;;;;;;;5040284;28;20052;-67
2022/02/01 10:57:40;;;;;;;9.32;5.90;;;;;;;;;;5046588;28;20580;-67
2022/02/01 11:00:34;;;;;;;10.93;6.82;;;;;;;;;;5029648;28;20042;-67
2022/02/01 11:03:29;;;;;;;9.57;6.00;;;;;;;;;;4969218;28;20273;-67
2022/02/01 11:06:23;;;;;;;9.85;5.38;;;;;;;;;;4961953;28;20760;-67
2022/02/01 11:08:54;;;;;;;10.25;6.18;;;;;;;;;;4983472;28;20364;-68
2022/02/01 11:11:21;;;;;;;9.90;6.50;;;;;;;;;;5031965;28;20053;-67
2022/02/01 11:14:48;;;;;;;11.75;7.13;;;;;;;;;;5050620;28;20074;-67
2022/02/01 11:17:44;;;;;;;12.20;6.22;;;;;;;;;;5070133;28;20499;-67
2022/02/01 11:20:39;;;;;;;10.75;6.53;;;;;;;;;;5079092;28;20070;-67
2022/02/01 11:23:41;;;;;;;10.93;5.70;;;;;;;;;;5069333;28;20075;-67
2022/02/01 11:26:20;;;;;;;7.70;5.18;;;;;;;;;;5073422;28;20067;-67
2022/02/01 11:29:15;;;;;;;11.30;6.18;;;;;;;;;;5052863;28;20128;-67
2022/02/01 11:32:15;;;;;;;9.38;5.75;;;;;;;;;;5057861;28;20476;-68
2022/02/01 11:35:11;;;;;;;10.90;5.70;;;;;;;;;;5049931;28;20428;-67
2022/02/01 11:38:05;;;;;;;7.55;4.50;;;;;;;;;;5058147;28;20548;-68
2022/02/01 11:40:34;;;;;;;6.88;4.30;;;;;;;;;;4999586;28;20227;-67
2022/02/01 11:43:29;;;;;;;8.65;4.63;;;;;;;;;;4971477;28;20211;-67
2022/02/01 11:46:23;;;;;;;6.68;3.67;;;;;;;;;;4951176;28;20870;-67
2022/02/01 11:49:26;;;;;;;7.80;4.68;;;;;;;;;;4979817;28;20235;-67
2022/02/01 11:52:07;;;;;;;9.73;4.00;;;;;;;;;;4979221;28;20180;-67
2022/02/01 11:55:07;;;;;;;7.82;3.78;;;;;;;;;;4970116;28;20722;-67
2022/02/01 11:58:03;;;;;;;8.02;5.07;;;;;;;;;;4963425;28;20617;-68
2022/02/01 12:00:57;;;;;;;7.25;4.22;;;;;;;;;;4958083;28;20230;-67
2022/02/01 12:04:11;;;;;;;4.80;3.58;;;;;;;;;;4950979;28;20651;-66
2022/02/01 12:07:07;;;;;;;6.50;4.18;;;;;;;;;;4957927;28;20350;-67
2022/02/01 12:09:34;;;;;;;7.75;4.05;;;;;;;;;;4946644;28;20684;-67
2022/02/01 12:12:28;;;;;;;6.25;3.72;;;;;;;;;;4977592;28;20364;-67
2022/02/01 12:15:29;;;;;;;6.78;4.85;;;;;;;;;;4967198;28;20306;-67
2022/02/01 12:18:00;;;;;;;7.15;4.72;;;;;;;;;;4979209;28;20163;-68
2022/02/01 12:21:03;;;;;;;9.63;4.70;;;;;;;;;;4967930;28;20196;-67
2022/02/01 12:23:58;;;;;;;7.10;4.40;;;;;;;;;;4974416;28;20267;-67
2022/02/01 12:26:53;;;;;;;8.18;5.20;;;;;;;;;;4969109;28;20205;-68
2022/02/01 12:29:19;;;;;;;9.30;5.88;;;;;;;;;;4977752;28;20250;-67
2022/02/01 12:31:47;;;;;;;10.25;6.00;;;;;;;;;;4970529;28;20188;-67
2022/02/01 12:34:41;;;;;;;11.32;6.90;;;;;;;;;;4976984;28;20285;-67
2022/02/01 12:37:35;;;;;;;11.60;6.10;;;;;;;;;;4971049;28;20184;-68
2022/02/01 12:40:32;;;;;;;17.98;7.70;;;;;;;;;;4968109;28;20308;-67
2022/02/01 12:43:30;;;;;;;17.45;7.70;;;;;;;;;;4974081;28;20203;-67
2022/02/01 12:46:29;;;;;;;16.92;7.45;;;;;;;;;;4976478;28;20307;-67
2022/02/01 12:49:13;;;;;;;20.02;6.80;;;;;;;;;;4980163;28;20207;-67
2022/02/01 12:52:18;;;;;;;17.92;7.72;;;;;;;;;;4980830;28;20204;-67
2022/02/01 12:55:14;;;;;;;19.77;5.50;;;;;;;;;;4954310;28;20246;-68
2022/02/01 12:58:12;;;;;;;15.02;6.60;;;;;;;;;;4972151;28;20203;-67
2022/02/01 13:01:07;;;;;;;24.05;6.45;;;;;;;;;;4965252;28;20254;-66
2022/02/01 13:04:04;;;;;;;20.70;6.25;;;;;;;;;;4977918;28;20359;-67
2022/02/01 13:06:58;;;;;;;22.35;5.88;;;;;;;;;;4970448;28;20219;-67
2022/02/01 13:16:36;;;;;;;15.20;5.10;;;;;;;;;;4980398;28;20197;-67
2022/02/01 13:22:51;;;;;;;21.58;5.43;;;;;;;;;;4981691;28;20297;-68
2022/02/01 13:25:45;;;;;;;17.17;4.65;;;;;;;;;;4977665;28;20522;-67
2022/02/01 13:28:40;;;;;;;17.38;4.97;;;;;;;;;;4978888;28;20196;-68
2022/02/01 13:31:08;;;;;;;19.42;5.07;;;;;;;;;;4969846;28;20224;-67
2022/02/01 13:34:05;;;;;;;14.10;4.35;;;;;;;;;;4977046;28;20193;-67
2022/02/01 13:37:02;;;;;;;17.92;4.47;;;;;;;;;;4976135;28;20634;-67
2022/02/01 13:39:56;;;;;;;18.60;4.78;;;;;;;;;;4977831;28;20635;-68
2022/02/01 13:42:50;;;;;;;11.95;3.90;;;;;;;;;;4958964;28;20827;-67
2022/02/01 13:45:45;;;;;;;16.15;3.97;;;;;;;;;;4980958;28;20301;-68
2022/02/01 13:48:38;;;;;;;15.07;3.97;;;;;;;;;;4989872;28;20730;-67
2022/02/01 13:51:44;;;;;;;13.85;3.75;;;;;;;;;;4962004;28;20321;-67
2022/02/01 13:54:40;;;;;;;11.93;3.70;;;;;;;;;;4944098;28;20212;-67
2022/02/01 13:57:36;;;;;;;12.57;3.97;;;;;;;;;;4973713;28;20386;-67
2022/02/01 14:27:43;;;;;;;15.98;3.03;;;;;;;;;;5051381;28;20117;-67
2022/02/01 14:36:36;;;;;;;10.07;2.70;;;;;;;;;;5052098;28;20820;-68
2022/02/01 14:45:41;;;;;;;9.98;2.97;;;;;;;;;;5039051;28;20472;-68
2022/02/01 14:48:36;;;;;;;17.40;3.67;;;;;;;;;;5063557;28;20061;-68
2022/02/01 14:51:30;;;;;;;13.45;2.78;;;;;;;;;;5029687;28;20511;-67
2022/02/01 14:54:34;;;;;;;15.93;3.42;;;;;;;;;;5039661;28;20380;-68
2022/02/01 15:04:07;;;;;;;12.18;3.25;;;;;;;;;;5053859;28;20086;-68
2022/02/01 15:07:15;;;;;;;14.02;2.92;;;;;;;;;;5053000;28;20539;-68
2022/02/01 15:13:22;;;;;;;16.95;3.42;;;;;;;;;;5057215;28;19965;-68
2022/02/01 15:16:16;;;;;;;20.98;2.65;;;;;;;;;;5049337;28;20528;-67
2022/02/01 15:19:10;;;;;;;17.13;3.08;;;;;;;;;;5035845;28;20101;-68
2022/02/01 15:22:04;;;;;;;16.85;3.00;;;;;;;;;;5058818;28;20051;-68
2022/02/01 15:24:58;;;;;;;10.50;2.75;;;;;;;;;;5050099;28;20555;-67
2022/02/01 15:27:30;;;;;;;13.95;2.42;;;;;;;;;;5057604;28;20115;-67
2022/02/01 15:29:56;;;;;;;18.25;2.75;;;;;;;;;;5053851;28;20048;-67
2022/02/01 15:32:50;;;;;;;18.25;3.17;;;;;;;;;;5054716;28;20044;-67
2022/02/01 15:35:44;;;;;;;17.73;2.53;;;;;;;;;;5058813;28;20089;-67
2022/02/01 15:38:42;;;;;;;15.23;2.50;;;;;;;;;;5058487;28;20047;-67
2022/02/01 16:00:26;;;;;;;26.65;2.80;;;;;;;;;;5037781;28;20105;-67
2022/02/01 16:03:31;;;;;;;15.93;2.35;;;;;;;;;;5055934;28;20133;-67
2022/02/01 16:06:24;;;;;;;22.83;3.20;;;;;;;;;;5040485;28;20650;-68
2022/02/01 16:09:43;;;;;;;17.58;2.65;;;;;;;;;;5058338;28;20089;-67
2022/02/01 16:12:12;;;;;;;16.27;2.75;;;;;;;;;;5051016;28;20145;-67
2022/02/01 16:14:39;;;;;;;15.90;2.83;;;;;;;;;;5067832;28;20064;-67
2022/02/01 16:17:05;;;;;;;15.05;2.33;;;;;;;;;;5060415;28;20324;-67
2022/02/01 16:19:32;;;;;;;19.40;3.10;;;;;;;;;;5069147;28;20469;-67
2022/02/01 16:21:58;;;;;;;21.85;3.00;;;;;;;;;;5061249;28;20051;-67
2022/02/01 16:24:31;;;;;;;18.05;2.95;;;;;;;;;;5063849;28;20052;-67
2022/02/01 16:26:58;;;;;;;25.63;3.13;;;;;;;;;;5063405;28;20063;-67
2022/02/01 16:29:24;;;;;;;21.55;2.97;;;;;;;;;;5062697;28;20061;-67
2022/02/01 16:31:50;;;;;;;15.13;3.42;;;;;;;;;;5067384;28;20044;-67
2022/02/01 16:34:17;;;;;;;21.63;3.20;;;;;;;;;;5060436;28;20053;-67
2022/02/01 16:36:43;;;;;;;18.25;2.53;;;;;;;;;;5067896;28;20049;-67
2022/02/01 16:39:11;;;;;;;17.17;2.90;;;;;;;;;;5053762;28;20052;-67
2022/02/01 16:41:37;;;;;;;12.82;2.85;;;;;;;;;;5063977;28;20063;-67
2022/02/01 16:44:04;;;;;;;19.67;3.20;;;;;;;;;;5067487;28;20049;-67
2022/02/01 16:46:38;;;;;;;20.08;2.50;;;;;;;;;;5060035;28;20134;-67
2022/02/01 16:49:05;;;;;;;22.40;2.80;;;;;;;;;;5080191;28;20469;-67
2022/02/01 16:51:32;;;;;;;17.85;2.72;;;;;;;;;;5076636;28;20052;-67
2022/02/01 16:54:05;;;;;;;22.60;3.63;;;;;;;;;;5062924;28;20044;-67
2022/02/01 16:59:47;;;;;;;14.35;2.78;;;;;;;;;;5068726;28;20107;-67
2022/02/01 17:01:56;;;;;;;24.13;3.10;;;;;;;;;;5051586;28;20080;-67
2022/02/01 17:04:22;;;;;;;21.88;3.47;;;;;;;;;;5066178;28;20059;-69
2022/02/01 17:06:49;;;;;;;18.25;3.00;;;;;;;;;;5044840;28;20642;-66
2022/02/01 17:09:18;;;;;;;20.98;3.65;;;;;;;;;;5060080;28;20044;-67
2022/02/01 17:21:55;;;;;;;18.40;3.33;;;;;;;;;;5061390;28;20052;-66
2022/02/01 17:24:23;;;;;;;16.00;2.90;;;;;;;;;;5058195;28;20054;-65
2022/02/01 17:26:50;;;;;;;16.70;2.97;;;;;;;;;;5060910;28;20079;-66
2022/02/01 17:29:16;;;;;;;26.52;3.05;;;;;;;;;;5063775;28;20055;-67
2022/02/01 17:31:43;;;;;;;16.27;3.47;;;;;;;;;;5054530;28;20140;-67
2022/02/01 17:34:10;;;;;;;16.38;2.95;;;;;;;;;;5053057;28;20052;-67
2022/02/01 17:36:37;;;;;;;16.15;3.58;;;;;;;;;;5053121;28;20331;-66
2022/02/01 17:39:06;;;;;;;23.42;3.42;;;;;;;;;;5064234;28;20498;-67
2022/02/01 17:41:32;;;;;;;22.10;3.45;;;;;;;;;;5063749;28;20102;-67
2022/02/01 17:44:01;;;;;;;21.05;3.40;;;;;;;;;;5060532;28;20056;-67
2022/02/01 17:46:30;;;;;;;16.13;3.08;;;;;;;;;;5059502;28;20048;-67
2022/02/01 17:48:57;;;;;;;24.85;3.55;;;;;;;;;;5063814;28;20056;-67
2022/02/01 17:51:29;;;;;;;23.52;3.92;;;;;;;;;;5084135;28;20040;-67
2022/02/01 17:54:18;;;;;;;21.88;3.58;;;;;;;;;;5057582;28;20193;-67
2022/02/01 17:56:46;;;;;;;18.17;2.85;;;;;;;;;;5063612;28;20051;-67
2022/02/01 17:59:13;;;;;;;21.90;3.05;;;;;;;;;;5055017;28;20052;-67
2022/02/01 18:01:39;;;;;;;13.35;2.72;;;;;;;;;;5058484;28;20505;-67
2022/02/01 18:04:06;;;;;;;23.05;3.92;;;;;;;;;;5058824;28;20152;-67
2022/02/01 18:06:32;;;;;;;24.65;3.35;;;;;;;;;;5055102;28;20074;-67
2022/02/01 18:08:59;;;;;;;21.67;3.22;;;;;;;;;;5062697;28;20537;-67
2022/02/01 18:11:42;;;;;;;20.50;2.65;;;;;;;;;;5056886;28;20053;-67
2022/02/01 18:14:22;;;;;;;22.40;3.13;;;;;;;;;;5080534;28;20048;-67
2022/02/01 18:16:50;;;;;;;26.70;4.20;;;;;;;;;;5059089;28;20494;-67
2022/02/01 18:19:17;;;;;;;18.55;2.80;;;;;;;;;;5057072;28;20070;-67
2022/02/01 18:21:45;;;;;;;18.50;2.53;;;;;;;;;;5057002;28;20075;-67